createdAt,value
2019-02-04T00:01:43.397Z,18.70
2019-02-04T00:04:13.202Z,13.62
2019-02-04T00:06:43.152Z,15.80
2019-02-04T00:09:13.161Z,14.87
2019-02-04T00:11:43.196Z,15.90
2019-02-04T00:14:13.178Z,17.40
2019-02-04T00:16:43.221Z,16.93
2019-02-04T00:19:13.395Z,27.05
2019-02-04T00:21:46.275Z,19.87
2019-02-04T00:24:16.078Z,18.27
2019-02-04T00:26:51.548Z,17.95
2019-02-04T00:29:17.701Z,16.60
2019-02-04T00:31:47.599Z,19.23
2019-02-04T00:34:17.626Z,17.87
2019-02-04T00:36:47.839Z,22.82
2019-02-04T00:39:17.845Z,25.77
2019-02-04T00:41:48.226Z,26.23
2019-02-04T00:44:18.195Z,20.70
2019-02-04T00:46:52.236Z,22.60
2019-02-04T00:49:19.977Z,20.43
2019-02-04T00:51:49.993Z,14.93
2019-02-04T00:54:20.587Z,21.70
2019-02-04T00:56:50.468Z,24.27
2019-02-04T00:59:20.350Z,23.27
2019-02-04T01:01:50.502Z,20.17
2019-02-04T01:04:20.498Z,18.00
2019-02-04T01:06:50.480Z,18.62
2019-02-04T01:09:20.246Z,25.20
2019-02-04T01:11:50.352Z,17.23
2019-02-04T01:14:20.127Z,16.80
2019-02-04T01:16:49.943Z,22.52
2019-02-04T01:19:20.235Z,21.07
2019-02-04T01:21:50.230Z,19.90
2019-02-04T01:24:19.988Z,18.52
2019-02-04T01:26:49.644Z,24.07
2019-02-04T01:29:19.550Z,19.05
2019-02-04T01:31:49.782Z,19.85
2019-02-04T01:34:20.269Z,21.80
2019-02-04T01:36:49.748Z,19.60
2019-02-04T01:39:19.575Z,20.62
2019-02-04T01:41:49.209Z,22.00
2019-02-04T01:44:19.156Z,18.60
2019-02-04T01:46:51.449Z,27.35
2019-02-04T01:49:20.106Z,20.97
2019-02-04T01:51:50.348Z,21.85
2019-02-04T01:54:20.321Z,22.17
2019-02-04T01:56:50.234Z,25.40
2019-02-04T01:59:20.105Z,21.35
2019-02-04T02:01:50.110Z,24.92
2019-02-04T02:04:19.987Z,25.43
2019-02-04T02:06:49.835Z,21.70
2019-02-04T02:09:25.647Z,23.95
2019-02-04T02:11:55.623Z,18.15
2019-02-04T02:14:25.762Z,18.85
2019-02-04T02:16:55.984Z,30.70
2019-02-04T02:19:26.349Z,22.98
2019-02-04T02:21:55.997Z,22.17
2019-02-04T02:24:25.997Z,31.93
2019-02-04T02:26:56.465Z,24.70
2019-02-04T02:29:26.704Z,19.98
2019-02-04T02:31:56.444Z,31.37
2019-02-04T02:34:26.348Z,23.00
2019-02-04T02:36:56.058Z,27.45
2019-02-04T02:39:26.102Z,29.37
2019-02-04T02:41:56.499Z,26.33
2019-02-04T02:44:27.071Z,25.43
2019-02-04T02:46:56.954Z,21.48
2019-02-04T02:49:26.945Z,28.62
2019-02-04T02:51:56.982Z,24.52
2019-02-04T02:54:26.945Z,30.15
2019-02-04T02:56:56.919Z,19.85
2019-02-04T02:59:27.014Z,25.82
2019-02-04T03:01:56.717Z,25.85
2019-02-04T03:04:26.631Z,22.13
2019-02-04T03:06:57.115Z,33.55
2019-02-04T03:09:27.452Z,23.32
2019-02-04T03:11:57.731Z,23.62
2019-02-04T03:14:27.671Z,26.33
2019-02-04T03:16:58.019Z,24.27
2019-02-04T03:19:27.787Z,23.70
2019-02-04T03:21:57.911Z,22.85
2019-02-04T03:24:27.905Z,22.77
2019-02-04T03:26:57.796Z,28.87
2019-02-04T03:29:27.809Z,33.23
2019-02-04T03:31:57.783Z,25.50
2019-02-04T03:34:27.527Z,28.92
2019-02-04T03:36:57.754Z,25.50
2019-02-04T03:39:27.672Z,25.92
2019-02-04T03:41:58.120Z,35.25
2019-02-04T03:44:28.216Z,29.42
2019-02-04T03:46:58.331Z,36.77
2019-02-04T03:49:28.380Z,29.50
2019-02-04T03:51:58.305Z,28.75
2019-02-04T03:54:28.258Z,29.40
2019-02-04T03:56:58.121Z,28.70
2019-02-04T03:59:28.166Z,26.57
2019-02-04T04:01:58.666Z,21.45
2019-02-04T04:04:29.052Z,31.80
2019-02-04T04:06:58.897Z,20.57
2019-02-04T04:09:29.101Z,27.13
2019-02-04T04:11:59.199Z,24.98
2019-02-04T04:14:28.866Z,27.25
2019-02-04T04:16:59.227Z,35.55
2019-02-04T04:19:29.100Z,29.10
2019-02-04T04:21:59.097Z,25.62
2019-02-04T04:24:28.982Z,23.92
2019-02-04T04:26:59.234Z,26.87
2019-02-04T04:29:29.216Z,28.73
2019-02-04T04:31:59.040Z,28.60
2019-02-04T04:34:29.220Z,24.45
2019-02-04T04:36:59.145Z,26.77
2019-02-04T04:39:28.853Z,29.02
2019-02-04T04:41:58.562Z,26.70
2019-02-04T04:44:28.776Z,27.35
2019-02-04T04:46:58.621Z,29.50
2019-02-04T04:49:28.397Z,23.65
2019-02-04T04:51:58.445Z,26.42
2019-02-04T04:54:28.140Z,28.30
2019-02-04T04:56:58.499Z,28.40
2019-02-04T04:59:28.503Z,25.72
2019-02-04T05:02:19.498Z,30.77
2019-02-04T05:04:49.275Z,25.40
2019-02-04T05:07:19.431Z,32.20
2019-02-04T05:09:49.510Z,29.02
2019-02-04T05:12:19.261Z,32.08
2019-02-04T05:14:49.254Z,23.35
2019-02-04T05:17:19.698Z,24.87
2019-02-04T05:19:49.435Z,26.17
2019-02-04T05:22:19.508Z,27.00
2019-02-04T05:24:49.988Z,26.95
2019-02-04T05:27:19.624Z,29.98
2019-02-04T05:29:49.677Z,29.48
2019-02-04T05:32:19.954Z,21.85
2019-02-04T05:34:50.379Z,31.45
2019-02-04T05:37:20.232Z,33.02
2019-02-04T05:39:50.379Z,21.73
2019-02-04T05:42:20.535Z,25.80
2019-02-04T05:44:50.481Z,27.50
2019-02-04T05:47:20.951Z,31.45
2019-02-04T05:49:50.935Z,22.00
2019-02-04T05:52:20.837Z,21.20
2019-02-04T05:54:50.729Z,21.15
2019-02-04T05:57:20.654Z,23.27
2019-02-04T05:59:50.583Z,25.72
2019-02-04T06:02:24.285Z,28.50
2019-02-04T06:04:54.093Z,26.30
2019-02-04T06:07:24.165Z,17.65
2019-02-04T06:09:54.231Z,30.35
2019-02-04T06:12:23.973Z,19.07
2019-02-04T06:14:54.291Z,19.27
2019-02-04T06:17:24.305Z,16.62
2019-02-04T06:19:54.302Z,26.60
2019-02-04T06:22:24.255Z,22.13
2019-02-04T06:24:54.705Z,22.73
2019-02-04T06:27:24.911Z,20.70
2019-02-04T06:29:54.507Z,21.37
2019-02-04T06:32:24.130Z,25.50
2019-02-04T06:34:54.068Z,22.95
2019-02-04T06:37:23.736Z,29.00
2019-02-04T06:39:53.810Z,19.85
2019-02-04T06:42:23.816Z,29.42
2019-02-04T06:44:53.388Z,28.10
2019-02-04T06:47:22.899Z,24.07
2019-02-04T06:49:52.732Z,24.60
2019-02-04T06:52:22.697Z,28.47
2019-02-04T06:54:52.304Z,24.98
2019-02-04T06:57:22.136Z,26.93
2019-02-04T06:59:51.618Z,23.25
2019-02-04T07:02:21.436Z,26.65
2019-02-04T07:04:51.172Z,27.65
2019-02-04T07:07:21.107Z,24.43
2019-02-04T07:09:51.051Z,23.75
2019-02-04T07:12:20.566Z,21.48
2019-02-04T07:14:50.450Z,26.80
2019-02-04T07:17:20.333Z,24.75
2019-02-04T07:19:49.977Z,23.52
2019-02-04T07:22:19.727Z,25.23
2019-02-04T07:24:50.027Z,22.30
2019-02-04T07:27:22.433Z,16.23
2019-02-04T07:29:51.051Z,20.68
2019-02-04T07:32:20.789Z,18.85
2019-02-04T07:34:50.567Z,18.60
2019-02-04T07:37:20.207Z,18.32
2019-02-04T07:39:50.431Z,19.23
2019-02-04T07:42:20.451Z,18.32
2019-02-04T07:44:49.846Z,31.65
2019-02-04T07:47:19.760Z,17.75
2019-02-04T07:49:49.606Z,17.20
2019-02-04T07:52:19.381Z,25.55
2019-02-04T07:54:49.086Z,21.93
2019-02-04T07:57:18.890Z,24.40
2019-02-04T07:59:48.398Z,24.95
2019-02-04T08:02:18.004Z,23.80
2019-02-04T08:04:47.748Z,21.52
2019-02-04T08:07:17.748Z,16.90
2019-02-04T08:09:47.259Z,20.35
2019-02-04T08:12:17.689Z,21.17
2019-02-04T08:14:47.163Z,19.23
2019-02-04T08:17:16.663Z,18.75
2019-02-04T08:19:47.299Z,18.95
2019-02-04T08:22:17.325Z,20.55
2019-02-04T08:24:47.023Z,16.75
2019-02-04T08:27:16.609Z,18.98
2019-02-04T08:29:46.124Z,18.73
2019-02-04T08:32:15.891Z,26.10
2019-02-04T08:34:45.743Z,15.68
2019-02-04T08:37:16.008Z,17.20
2019-02-04T08:39:45.646Z,17.23
2019-02-04T08:42:15.378Z,28.42
2019-02-04T08:44:44.984Z,16.20
2019-02-04T08:47:22.744Z,19.55
2019-02-04T08:49:46.012Z,19.02
2019-02-04T08:52:15.887Z,15.05
2019-02-04T08:54:45.894Z,17.23
2019-02-04T08:57:15.405Z,17.12
2019-02-04T08:59:45.111Z,16.12
2019-02-04T09:02:14.790Z,16.50
2019-02-04T09:04:44.391Z,18.15
2019-02-04T09:07:13.995Z,14.13
2019-02-04T09:09:43.899Z,22.45
2019-02-04T09:12:14.326Z,16.20
2019-02-04T09:14:44.090Z,15.18
2019-02-04T09:17:13.724Z,12.45
2019-02-04T09:19:43.354Z,16.35
2019-02-04T09:22:13.377Z,17.15
2019-02-04T09:24:42.883Z,16.77
2019-02-04T09:27:13.163Z,27.50
2019-02-04T09:29:42.700Z,14.63
2019-02-04T09:32:12.405Z,21.40
2019-02-04T09:34:41.861Z,15.68
2019-02-04T09:37:11.685Z,14.35
2019-02-04T09:39:41.205Z,14.18
2019-02-04T09:42:10.659Z,16.12
2019-02-04T09:44:40.542Z,17.00
2019-02-04T09:47:10.243Z,14.78
2019-02-04T09:49:40.365Z,22.30
2019-02-04T09:52:10.174Z,17.50
2019-02-04T09:54:39.879Z,19.60
2019-02-04T09:57:09.594Z,13.62
2019-02-04T09:59:39.401Z,16.20
2019-02-04T10:02:10.361Z,19.73
2019-02-04T10:04:40.723Z,30.32
2019-02-04T10:07:10.754Z,16.80
2019-02-04T10:09:40.589Z,13.13
2019-02-04T10:12:10.398Z,15.63
2019-02-04T10:14:40.359Z,15.53
2019-02-04T10:17:10.895Z,15.58
2019-02-04T10:19:40.845Z,11.70
2019-02-04T10:22:11.013Z,17.17
2019-02-04T10:24:40.859Z,12.05
2019-02-04T10:27:10.873Z,13.93
2019-02-04T10:29:44.016Z,12.98
2019-02-04T10:32:13.864Z,9.45
2019-02-04T10:34:43.608Z,11.63
2019-02-04T10:37:13.518Z,7.55
2019-02-04T10:39:43.727Z,10.08
2019-02-04T10:42:13.555Z,7.25
2019-02-04T10:44:44.129Z,8.93
2019-02-04T10:47:13.961Z,8.48
2019-02-04T10:49:43.733Z,9.85
2019-02-04T10:52:13.510Z,15.30
2019-02-04T10:54:43.210Z,8.43
2019-02-04T10:57:13.397Z,7.08
2019-02-04T10:59:43.386Z,10.28
2019-02-04T11:02:13.379Z,8.25
2019-02-04T11:04:42.908Z,8.88
2019-02-04T11:07:12.797Z,11.28
2019-02-04T11:09:43.127Z,10.40
2019-02-04T11:12:13.237Z,9.75
2019-02-04T11:14:42.931Z,11.73
2019-02-04T11:17:12.762Z,10.60
2019-02-04T11:19:42.339Z,9.68
2019-02-04T11:22:12.041Z,11.48
2019-02-04T11:24:41.856Z,13.98
2019-02-04T11:27:11.699Z,16.45
2019-02-04T11:29:41.999Z,14.10
2019-02-04T11:32:12.219Z,9.40
2019-02-04T11:34:42.081Z,12.25
2019-02-04T11:37:12.041Z,10.25
2019-02-04T11:39:41.833Z,11.97
2019-02-04T11:42:11.665Z,12.23
2019-02-04T11:44:41.469Z,11.12
2019-02-04T11:47:11.299Z,14.53
2019-02-04T11:49:41.102Z,9.35
2019-02-04T11:52:11.112Z,10.45
2019-02-04T11:54:41.079Z,6.83
2019-02-04T11:57:10.650Z,10.40
2019-02-04T11:59:40.549Z,8.80
2019-02-04T12:02:10.479Z,8.83
2019-02-04T12:04:40.138Z,11.55
2019-02-04T12:07:10.091Z,12.98
2019-02-04T12:09:39.989Z,14.87
2019-02-04T12:12:09.636Z,9.85
2019-02-04T12:14:39.155Z,24.45
2019-02-04T12:17:09.018Z,9.18
2019-02-04T12:19:38.917Z,8.80
2019-02-04T12:22:09.035Z,7.92
2019-02-04T12:24:38.548Z,9.63
2019-02-04T12:27:08.440Z,12.07
2019-02-04T12:29:38.319Z,8.33
2019-02-04T12:32:08.206Z,8.25
2019-02-04T12:34:38.304Z,10.90
2019-02-04T12:37:08.321Z,7.55
2019-02-04T12:39:38.315Z,7.22
2019-02-04T12:42:08.055Z,24.75
2019-02-04T12:44:37.716Z,4.30
2019-02-04T12:47:07.594Z,9.10
2019-02-04T12:49:37.413Z,16.37
2019-02-04T12:52:07.113Z,12.05
2019-02-04T12:54:37.491Z,14.80
2019-02-04T12:57:07.251Z,9.28
2019-02-04T12:59:37.030Z,7.37
2019-02-04T13:02:06.876Z,6.85
2019-02-04T13:04:37.359Z,13.55
2019-02-04T13:07:07.260Z,8.98
2019-02-04T13:09:37.114Z,10.28
2019-02-04T13:12:09.089Z,10.20
2019-02-04T13:14:38.075Z,11.12
2019-02-04T13:17:07.714Z,9.15
2019-02-04T13:19:40.085Z,17.77
2019-02-04T13:22:09.157Z,12.70
2019-02-04T13:24:38.711Z,9.05
2019-02-04T13:27:08.418Z,7.47
2019-02-04T13:29:38.192Z,10.58
2019-02-04T13:32:08.191Z,8.60
2019-02-04T13:34:38.428Z,13.43
2019-02-04T13:37:08.276Z,14.20
2019-02-04T13:39:47.578Z,14.13
2019-02-04T13:42:17.113Z,9.78
2019-02-04T13:44:47.025Z,22.45
2019-02-04T13:47:17.028Z,10.65
2019-02-04T13:49:46.831Z,8.15
2019-02-04T13:52:16.713Z,8.68
2019-02-04T13:54:46.272Z,11.65
2019-02-04T13:57:16.113Z,11.93
2019-02-04T13:59:45.990Z,9.05
2019-02-04T14:02:15.633Z,13.90
2019-02-04T14:04:45.278Z,14.85
2019-02-04T14:07:14.847Z,15.05
2019-02-04T14:09:44.912Z,8.73
2019-02-04T14:12:15.029Z,13.05
2019-02-04T14:14:45.031Z,13.30
2019-02-04T14:17:14.872Z,11.57
2019-02-04T14:19:44.789Z,11.10
2019-02-04T14:22:14.672Z,11.88
2019-02-04T14:24:44.913Z,10.68
2019-02-04T14:27:14.670Z,8.70
2019-02-04T14:29:44.309Z,8.38
2019-02-04T14:32:14.253Z,6.40
2019-02-04T14:34:44.191Z,11.45
2019-02-04T14:37:14.075Z,12.75
2019-02-04T14:39:44.246Z,8.45
2019-02-04T14:42:17.249Z,7.83
2019-02-04T14:45:16.947Z,11.85
2019-02-04T14:48:04.247Z,14.73
2019-02-04T14:51:26.649Z,8.03
2019-02-04T14:54:21.349Z,6.62
2019-02-04T14:57:38.464Z,11.15
2019-02-04T15:00:55.710Z,7.75
2019-02-04T15:03:34.303Z,7.45
2019-02-04T15:06:33.923Z,6.83
2019-02-04T15:09:36.268Z,12.03
2019-02-04T15:12:59.137Z,5.03
2019-02-04T15:16:06.632Z,6.67
2019-02-04T15:19:17.297Z,8.18
2019-02-04T15:22:33.788Z,5.60
2019-02-04T15:25:28.807Z,9.08
2019-02-04T15:28:10.706Z,7.28
2019-02-04T15:31:29.459Z,10.43
2019-02-04T15:34:18.202Z,6.45
2019-02-04T15:37:16.954Z,11.40
2019-02-04T15:40:01.827Z,4.75
2019-02-04T15:43:21.448Z,5.80
2019-02-04T15:46:15.417Z,3.87
2019-02-04T15:49:17.425Z,9.03
2019-02-04T15:51:54.150Z,4.28
2019-02-04T15:54:23.908Z,10.10
2019-02-04T15:56:53.262Z,8.05
2019-02-04T15:59:22.946Z,9.13
2019-02-04T16:01:53.307Z,6.90
2019-02-04T16:04:34.350Z,5.80
2019-02-04T16:07:06.511Z,7.80
2019-02-04T16:09:39.752Z,8.33
2019-02-04T16:12:12.300Z,3.02
2019-02-04T16:14:42.819Z,3.50
2019-02-04T16:17:13.351Z,6.22
2019-02-04T16:19:46.354Z,33.25
2019-02-04T16:22:16.464Z,6.70
2019-02-04T16:24:47.003Z,5.53
2019-02-04T16:27:17.451Z,4.15
2019-02-04T16:29:49.229Z,4.15
2019-02-04T16:32:19.885Z,5.37
2019-02-04T16:34:50.188Z,4.72
2019-02-04T16:37:20.199Z,8.18
2019-02-04T16:39:50.846Z,5.15
2019-02-04T16:42:20.787Z,6.42
2019-02-04T16:44:50.824Z,5.67
2019-02-04T16:47:20.911Z,6.15
2019-02-04T16:49:50.671Z,4.22
2019-02-04T16:52:20.463Z,6.87
2019-02-04T16:54:50.585Z,4.72
2019-02-04T16:57:21.279Z,4.25
2019-02-04T16:59:51.098Z,6.12
2019-02-04T17:02:20.904Z,7.05
2019-02-04T17:04:51.738Z,8.03
2019-02-04T17:07:23.201Z,8.50
2019-02-04T17:09:53.318Z,6.03
2019-02-04T17:12:23.182Z,6.60
2019-02-04T17:14:53.918Z,7.35
2019-02-04T17:17:23.746Z,5.55
2019-02-04T17:19:55.783Z,6.05
2019-02-04T17:22:38.052Z,3.85
2019-02-04T17:25:08.591Z,4.50
2019-02-04T17:27:40.208Z,3.92
2019-02-04T17:30:13.468Z,8.60
2019-02-04T17:32:43.971Z,14.75
2019-02-04T17:35:13.939Z,19.57
2019-02-04T17:37:43.766Z,11.30
2019-02-04T17:40:16.884Z,13.03
2019-02-04T17:42:47.540Z,16.95
2019-02-04T17:45:18.581Z,9.00
2019-02-04T17:47:49.740Z,22.52
2019-02-04T17:50:20.679Z,7.42
2019-02-04T17:52:51.311Z,21.73
2019-02-04T17:55:23.365Z,26.10
2019-02-04T17:57:53.667Z,4.20
2019-02-04T18:00:56.172Z,8.05
2019-02-04T18:03:26.669Z,5.80
2019-02-04T18:05:57.155Z,8.25
2019-02-04T18:08:28.179Z,7.95
2019-02-04T18:11:00.158Z,8.95
2019-02-04T18:13:29.924Z,12.30
2019-02-04T18:16:00.388Z,8.25
2019-02-04T18:18:30.868Z,8.73
2019-02-04T18:21:01.036Z,3.35
2019-02-04T18:23:31.317Z,8.63
2019-02-04T18:26:01.973Z,5.00
2019-02-04T18:28:34.122Z,5.58
2019-02-04T18:31:04.472Z,4.47
2019-02-04T18:33:34.714Z,8.03
2019-02-04T18:36:04.579Z,5.90
2019-02-04T18:38:34.826Z,4.45
2019-02-04T18:41:05.715Z,2.30
2019-02-04T18:43:35.487Z,2.75
2019-02-04T18:46:05.660Z,2.87
2019-02-04T18:48:36.407Z,3.45
2019-02-04T18:51:07.443Z,5.28
2019-02-04T18:53:43.762Z,3.55
2019-02-04T18:56:22.504Z,6.90
2019-02-04T18:58:52.709Z,4.80
2019-02-04T19:01:23.061Z,4.95
2019-02-04T19:03:57.430Z,7.20
2019-02-04T19:06:27.676Z,4.25
2019-02-04T19:08:58.118Z,3.08
2019-02-04T19:11:28.345Z,4.62
2019-02-04T19:13:58.853Z,4.28
2019-02-04T19:16:29.194Z,4.70
2019-02-04T19:18:59.604Z,7.37
2019-02-04T19:21:31.958Z,2.60
2019-02-04T19:24:09.605Z,2.15
2019-02-04T19:26:36.834Z,3.67
2019-02-04T19:29:09.689Z,2.42
2019-02-04T19:31:39.756Z,7.50
2019-02-04T19:34:09.510Z,8.80
2019-02-04T19:36:40.057Z,4.37
2019-02-04T19:39:11.221Z,4.85
2019-02-04T19:41:48.022Z,22.17
2019-02-04T19:44:18.133Z,2.65
2019-02-04T19:46:48.410Z,7.90
2019-02-04T19:49:19.364Z,12.53
2019-02-04T19:51:49.684Z,7.83
2019-02-04T19:54:21.662Z,7.17
2019-02-04T19:56:54.022Z,6.83
2019-02-04T19:59:24.492Z,15.50
2019-02-04T20:01:54.764Z,8.13
2019-02-04T20:04:25.397Z,22.20
2019-02-04T20:06:55.214Z,31.97
2019-02-04T20:09:24.914Z,3.08
2019-02-04T20:11:54.886Z,13.95
2019-02-04T20:14:24.916Z,7.95
2019-02-04T20:16:55.572Z,5.05
2019-02-04T20:19:26.225Z,7.15
2019-02-04T20:21:56.416Z,8.70
2019-02-04T20:24:33.256Z,11.53
2019-02-04T20:26:58.313Z,8.03
2019-02-04T20:29:28.465Z,5.62
2019-02-04T20:31:59.118Z,5.90
2019-02-04T20:34:29.682Z,6.08
2019-02-04T20:36:59.555Z,7.20
2019-02-04T20:39:29.682Z,8.00
2019-02-04T20:42:00.264Z,4.45
2019-02-04T20:44:32.283Z,7.03
2019-02-04T20:47:02.813Z,3.87
2019-02-04T20:49:33.400Z,9.43
2019-02-04T20:52:11.660Z,14.53
2019-02-04T20:54:45.386Z,5.28
2019-02-04T20:57:15.675Z,6.87
2019-02-04T20:59:45.877Z,4.67
2019-02-04T21:02:15.716Z,4.40
2019-02-04T21:04:45.935Z,8.08
2019-02-04T21:07:16.157Z,5.17
2019-02-04T21:09:46.580Z,6.37
2019-02-04T21:12:22.337Z,5.80
2019-02-04T21:14:58.801Z,3.17
2019-02-04T21:17:32.058Z,3.55
2019-02-04T21:20:02.232Z,9.90
2019-02-04T21:22:32.188Z,3.47
2019-02-04T21:25:02.675Z,7.15
2019-02-04T21:27:32.356Z,3.55
2019-02-04T21:30:02.174Z,10.45
2019-02-04T21:32:32.714Z,2.65
2019-02-04T21:35:02.587Z,8.43
2019-02-04T21:37:33.380Z,5.20
2019-02-04T21:40:06.258Z,8.10
2019-02-04T21:42:38.663Z,8.58
2019-02-04T21:45:12.394Z,4.75
2019-02-04T21:47:42.505Z,4.25
2019-02-04T21:50:15.510Z,3.22
2019-02-04T21:52:45.688Z,3.35
2019-02-04T21:55:16.387Z,5.67
2019-02-04T21:57:46.711Z,5.53
2019-02-04T22:00:25.187Z,8.90
2019-02-04T22:02:56.426Z,4.72
2019-02-04T22:05:28.037Z,7.30
2019-02-04T22:07:58.159Z,3.27
2019-02-04T22:10:29.293Z,6.70
2019-02-04T22:12:59.416Z,7.05
2019-02-04T22:15:29.187Z,6.80
2019-02-04T22:17:59.174Z,4.58
2019-02-04T22:20:29.079Z,6.03
2019-02-04T22:22:58.690Z,3.60
2019-02-04T22:25:28.449Z,11.75
2019-02-04T22:27:58.154Z,5.22
2019-02-04T22:30:29.533Z,6.20
2019-02-04T22:32:59.532Z,4.42
2019-02-04T22:35:30.080Z,5.75
2019-02-04T22:38:01.527Z,11.88
2019-02-04T22:40:31.935Z,4.12
2019-02-04T22:43:02.416Z,6.05
2019-02-04T22:45:33.288Z,9.98
2019-02-04T22:48:03.794Z,6.30
2019-02-04T22:50:33.523Z,5.53
2019-02-04T22:53:04.088Z,4.22
2019-02-04T22:55:35.636Z,7.53
2019-02-04T22:58:06.788Z,7.40
2019-02-04T23:01:01.890Z,3.60
2019-02-04T23:03:34.163Z,4.72
2019-02-04T23:06:21.241Z,11.97
2019-02-04T23:08:56.721Z,3.87
2019-02-04T23:11:24.903Z,10.78
2019-02-04T23:13:59.326Z,8.10
2019-02-04T23:16:33.227Z,4.78
2019-02-04T23:19:05.909Z,12.18
2019-02-04T23:21:36.381Z,6.05
2019-02-04T23:24:09.309Z,6.92
2019-02-04T23:26:46.908Z,7.15
2019-02-04T23:29:16.839Z,7.95
2019-02-04T23:31:51.341Z,12.25
2019-02-04T23:34:25.454Z,11.38
2019-02-04T23:37:07.007Z,7.00
2019-02-04T23:39:41.049Z,8.53
2019-02-04T23:42:14.415Z,10.35
2019-02-04T23:44:45.009Z,6.90
2019-02-04T23:47:15.398Z,9.63
2019-02-04T23:49:48.206Z,4.85
2019-02-04T23:52:29.968Z,12.35
2019-02-04T23:55:02.131Z,8.30
2019-02-04T23:57:39.817Z,8.35
